sensor_id;sensor_type;location;lat;lon;timestamp;temperature;humidity
7496;DHT22;3789;47.064;15.482;2022-12-07T00:00:40;1.70;99.90
7496;DHT22;3789;47.064;15.482;2022-12-07T00:03:09;1.70;99.90
7496;DHT22;3789;47.064;15.482;2022-12-07T00:05:37;1.70;99.90
7496;DHT22;3789;47.064;15.482;2022-12-07T00:08:08;1.70;99.90
7496;DHT22;3789;47.064;15.482;2022-12-07T00:10:44;1.80;99.90
7496;DHT22;3789;47.064;15.482;2022-12-07T00:13:13;1.90;99.90
7496;DHT22;3789;47.064;15.482;2022-12-07T00:15:42;1.80;99.90
7496;DHT22;3789;47.064;15.482;2022-12-07T00:18:13;1.70;99.90
7496;DHT22;3789;47.064;15.482;2022-12-07T00:20:51;1.60;99.90
7496;DHT22;3789;47.064;15.482;2022-12-07T00:23:22;1.70;99.90
7496;DHT22;3789;47.064;15.482;2022-12-07T00:25:53;1.70;99.90
7496;DHT22;3789;47.064;15.482;2022-12-07T00:28:23;1.70;99.90
7496;DHT22;3789;47.064;15.482;2022-12-07T00:30:51;1.70;99.90
7496;DHT22;3789;47.064;15.482;2022-12-07T00:33:19;1.70;99.90
7496;DHT22;3789;47.064;15.482;2022-12-07T00:35:56;1.80;99.90
7496;DHT22;3789;47.064;15.482;2022-12-07T00:38:30;1.80;99.90
7496;DHT22;3789;47.064;15.482;2022-12-07T00:41:03;1.80;99.90
7496;DHT22;3789;47.064;15.482;2022-12-07T00:43:32;1.80;99.90
7496;DHT22;3789;47.064;15.482;2022-12-07T00:46:00;1.70;99.90
7496;DHT22;3789;47.064;15.482;2022-12-07T00:48:29;1.70;99.90
7496;DHT22;3789;47.064;15.482;2022-12-07T00:51:05;1.70;99.90
7496;DHT22;3789;47.064;15.482;2022-12-07T00:53:36;1.70;99.90
7496;DHT22;3789;47.064;15.482;2022-12-07T00:56:11;1.70;99.90
7496;DHT22;3789;47.064;15.482;2022-12-07T00:58:41;1.70;99.90
7496;DHT22;3789;47.064;15.482;2022-12-07T01:01:12;1.70;99.90
7496;DHT22;3789;47.064;15.482;2022-12-07T01:03:48;1.70;99.90
7496;DHT22;3789;47.064;15.482;2022-12-07T01:09:30;1.70;99.90
7496;DHT22;3789;47.064;15.482;2022-12-07T01:11:59;1.80;99.90
7496;DHT22;3789;47.064;15.482;2022-12-07T01:14:35;1.80;99.90
7496;DHT22;3789;47.064;15.482;2022-12-07T01:17:11;1.80;99.90
7496;DHT22;3789;47.064;15.482;2022-12-07T01:19:42;1.80;99.90
7496;DHT22;3789;47.064;15.482;2022-12-07T01:22:13;1.80;99.90
7496;DHT22;3789;47.064;15.482;2022-12-07T01:24:40;1.80;99.90
7496;DHT22;3789;47.064;15.482;2022-12-07T01:27:08;1.70;99.90
7496;DHT22;3789;47.064;15.482;2022-12-07T01:29:43;1.70;99.90
7496;DHT22;3789;47.064;15.482;2022-12-07T01:32:13;1.60;99.90
7496;DHT22;3789;47.064;15.482;2022-12-07T01:34:41;1.50;99.90
7496;DHT22;3789;47.064;15.482;2022-12-07T01:37:11;1.60;99.90
7496;DHT22;3789;47.064;15.482;2022-12-07T01:39:42;1.60;99.90
7496;DHT22;3789;47.064;15.482;2022-12-07T01:42:17;1.60;99.90
7496;DHT22;3789;47.064;15.482;2022-12-07T01:47:59;1.70;99.90
7496;DHT22;3789;47.064;15.482;2022-12-07T01:50:29;1.60;99.90
7496;DHT22;3789;47.064;15.482;2022-12-07T01:53:09;1.50;99.90
7496;DHT22;3789;47.064;15.482;2022-12-07T01:55:46;1.50;99.90
7496;DHT22;3789;47.064;15.482;2022-12-07T01:58:16;1.20;99.90
7496;DHT22;3789;47.064;15.482;2022-12-07T02:00:46;-0.40;99.90
7496;DHT22;3789;47.064;15.482;2022-12-07T02:03:29;-1.70;99.90
7496;DHT22;3789;47.064;15.482;2022-12-07T02:06:00;-2.80;99.90
7496;DHT22;3789;47.064;15.482;2022-12-07T02:08:31;-3.40;99.90
7496;DHT22;3789;47.064;15.482;2022-12-07T02:11:01;-3.90;99.90
7496;DHT22;3789;47.064;15.482;2022-12-07T02:13:32;-4.30;99.90
7496;DHT22;3789;47.064;15.482;2022-12-07T02:16:29;-4.60;99.90
7496;DHT22;3789;47.064;15.482;2022-12-07T02:34:32;-5.20;99.90
7496;DHT22;3789;47.064;15.482;2022-12-07T02:37:29;-5.30;99.90
7496;DHT22;3789;47.064;15.482;2022-12-07T02:40:01;-5.40;99.90
7496;DHT22;3789;47.064;15.482;2022-12-07T02:42:49;-5.50;99.90
7496;DHT22;3789;47.064;15.482;2022-12-07T02:45:32;-5.50;99.90
7496;DHT22;3789;47.064;15.482;2022-12-07T02:48:14;-5.50;99.90
7496;DHT22;3789;47.064;15.482;2022-12-07T02:50:53;-5.00;99.90
7496;DHT22;3789;47.064;15.482;2022-12-07T02:53:43;-3.00;99.90
7496;DHT22;3789;47.064;15.482;2022-12-07T03:02:39;-4.90;99.90
7496;DHT22;3789;47.064;15.482;2022-12-07T03:08:57;-5.20;99.90
7496;DHT22;3789;47.064;15.482;2022-12-07T03:12:01;-5.40;99.90
7496;DHT22;3789;47.064;15.482;2022-12-07T03:15:23;-5.50;99.90
7496;DHT22;3789;47.064;15.482;2022-12-07T03:18:04;-5.60;99.90
7496;DHT22;3789;47.064;15.482;2022-12-07T03:20:53;-5.70;99.90
7496;DHT22;3789;47.064;15.482;2022-12-07T03:23:25;-5.70;99.90
7496;DHT22;3789;47.064;15.482;2022-12-07T03:26:00;-5.80;99.90
7496;DHT22;3789;47.064;15.482;2022-12-07T03:28:43;-5.80;99.90
7496;DHT22;3789;47.064;15.482;2022-12-07T03:31:23;-5.90;99.90
7496;DHT22;3789;47.064;15.482;2022-12-07T03:37:06;-5.90;99.90
7496;DHT22;3789;47.064;15.482;2022-12-07T03:40:11;-6.00;99.90
7496;DHT22;3789;47.064;15.482;2022-12-07T03:42:45;-6.00;99.90
7496;DHT22;3789;47.064;15.482;2022-12-07T03:45:14;-6.00;99.90
7496;DHT22;3789;47.064;15.482;2022-12-07T03:51:14;-4.90;99.90
7496;DHT22;3789;47.064;15.482;2022-12-07T03:56:42;-3.00;99.90
7496;DHT22;3789;47.064;15.482;2022-12-07T03:59:15;-2.50;99.90
7496;DHT22;3789;47.064;15.482;2022-12-07T04:01:45;-2.20;99.90
7496;DHT22;3789;47.064;15.482;2022-12-07T04:04:19;-2.00;99.90
7496;DHT22;3789;47.064;15.482;2022-12-07T04:06:50;-1.40;99.90
7496;DHT22;3789;47.064;15.482;2022-12-07T04:09:18;-1.10;99.90
7496;DHT22;3789;47.064;15.482;2022-12-07T04:11:47;-1.00;99.90
7496;DHT22;3789;47.064;15.482;2022-12-07T04:14:15;-0.80;99.90
7496;DHT22;3789;47.064;15.482;2022-12-07T04:16:57;-0.70;99.90
7496;DHT22;3789;47.064;15.482;2022-12-07T04:19:33;-0.50;99.90
7496;DHT22;3789;47.064;15.482;2022-12-07T04:22:03;-0.30;99.90
7496;DHT22;3789;47.064;15.482;2022-12-07T04:24:33;-0.20;99.90
7496;DHT22;3789;47.064;15.482;2022-12-07T04:27:02;-0.10;99.90
7496;DHT22;3789;47.064;15.482;2022-12-07T04:29:32;-0.10;99.90
7496;DHT22;3789;47.064;15.482;2022-12-07T04:31:59;0.00;99.90
7496;DHT22;3789;47.064;15.482;2022-12-07T04:34:29;0.10;99.90
7496;DHT22;3789;47.064;15.482;2022-12-07T04:36:56;0.10;99.90
7496;DHT22;3789;47.064;15.482;2022-12-07T04:39:31;0.20;99.90
7496;DHT22;3789;47.064;15.482;2022-12-07T04:41:59;0.20;99.90
7496;DHT22;3789;47.064;15.482;2022-12-07T04:44:32;0.20;99.90
7496;DHT22;3789;47.064;15.482;2022-12-07T04:47:00;0.30;99.90
7496;DHT22;3789;47.064;15.482;2022-12-07T04:49:30;0.40;99.90
7496;DHT22;3789;47.064;15.482;2022-12-07T04:52:01;0.30;99.90
7496;DHT22;3789;47.064;15.482;2022-12-07T04:54:30;0.40;99.90
7496;DHT22;3789;47.064;15.482;2022-12-07T04:57:00;0.30;99.90
7496;DHT22;3789;47.064;15.482;2022-12-07T04:59:33;0.40;99.90
7496;DHT22;3789;47.064;15.482;2022-12-07T05:02:13;0.40;99.90
7496;DHT22;3789;47.064;15.482;2022-12-07T05:04:43;0.40;99.90
7496;DHT22;3789;47.064;15.482;2022-12-07T05:07:18;0.40;99.90
7496;DHT22;3789;47.064;15.482;2022-12-07T05:09:49;0.50;99.90
7496;DHT22;3789;47.064;15.482;2022-12-07T05:12:17;0.50;99.90
7496;DHT22;3789;47.064;15.482;2022-12-07T05:14:44;0.50;99.90
7496;DHT22;3789;47.064;15.482;2022-12-07T05:17:14;0.30;99.90
7496;DHT22;3789;47.064;15.482;2022-12-07T05:19:44;0.20;99.90
7496;DHT22;3789;47.064;15.482;2022-12-07T05:22:14;0.20;99.90
7496;DHT22;3789;47.064;15.482;2022-12-07T05:24:51;0.40;99.90
7496;DHT22;3789;47.064;15.482;2022-12-07T05:27:20;0.40;99.90
7496;DHT22;3789;47.064;15.482;2022-12-07T05:29:53;0.30;99.90
7496;DHT22;3789;47.064;15.482;2022-12-07T05:32:23;0.20;99.90
7496;DHT22;3789;47.064;15.482;2022-12-07T05:34:52;0.20;99.90
7496;DHT22;3789;47.064;15.482;2022-12-07T05:37:26;0.20;99.90
7496;DHT22;3789;47.064;15.482;2022-12-07T05:39:56;0.20;99.90
7496;DHT22;3789;47.064;15.482;2022-12-07T05:42:26;0.20;99.90
7496;DHT22;3789;47.064;15.482;2022-12-07T05:44:57;0.10;99.90
7496;DHT22;3789;47.064;15.482;2022-12-07T05:47:24;0.10;99.90
7496;DHT22;3789;47.064;15.482;2022-12-07T05:49:51;0.10;99.90
7496;DHT22;3789;47.064;15.482;2022-12-07T05:52:22;0.20;99.90
7496;DHT22;3789;47.064;15.482;2022-12-07T05:54:53;0.20;99.90
7496;DHT22;3789;47.064;15.482;2022-12-07T05:57:22;0.30;99.90
7496;DHT22;3789;47.064;15.482;2022-12-07T05:59:52;0.30;99.90
7496;DHT22;3789;47.064;15.482;2022-12-07T06:02:24;0.30;99.90
7496;DHT22;3789;47.064;15.482;2022-12-07T06:04:52;0.20;99.90
7496;DHT22;3789;47.064;15.482;2022-12-07T06:07:37;0.10;99.90
7496;DHT22;3789;47.064;15.482;2022-12-07T06:10:10;0.20;99.90
7496;DHT22;3789;47.064;15.482;2022-12-07T06:12:38;0.30;99.90
7496;DHT22;3789;47.064;15.482;2022-12-07T06:15:23;0.30;99.90
7496;DHT22;3789;47.064;15.482;2022-12-07T06:17:50;0.40;99.90
7496;DHT22;3789;47.064;15.482;2022-12-07T06:20:17;0.40;99.90
7496;DHT22;3789;47.064;15.482;2022-12-07T06:22:50;0.40;99.90
7496;DHT22;3789;47.064;15.482;2022-12-07T06:25:18;0.40;99.90
7496;DHT22;3789;47.064;15.482;2022-12-07T06:27:49;0.50;99.90
7496;DHT22;3789;47.064;15.482;2022-12-07T06:30:26;0.50;99.90
7496;DHT22;3789;47.064;15.482;2022-12-07T06:33:01;0.40;99.90
7496;DHT22;3789;47.064;15.482;2022-12-07T06:35:34;0.50;99.90
7496;DHT22;3789;47.064;15.482;2022-12-07T06:38:02;0.50;99.90
7496;DHT22;3789;47.064;15.482;2022-12-07T06:40:39;0.40;99.90
7496;DHT22;3789;47.064;15.482;2022-12-07T06:43:08;0.50;99.90
7496;DHT22;3789;47.064;15.482;2022-12-07T06:45:36;0.50;99.90
7496;DHT22;3789;47.064;15.482;2022-12-07T06:48:08;0.50;99.90
7496;DHT22;3789;47.064;15.482;2022-12-07T06:50:38;0.50;99.90
7496;DHT22;3789;47.064;15.482;2022-12-07T06:53:09;0.50;99.90
7496;DHT22;3789;47.064;15.482;2022-12-07T06:55:39;0.60;99.90
7496;DHT22;3789;47.064;15.482;2022-12-07T06:58:09;0.50;99.90
7496;DHT22;3789;47.064;15.482;2022-12-07T07:00:38;0.40;99.90
7496;DHT22;3789;47.064;15.482;2022-12-07T07:03:08;0.40;99.90
7496;DHT22;3789;47.064;15.482;2022-12-07T07:05:37;0.30;99.90
7496;DHT22;3789;47.064;15.482;2022-12-07T07:08:04;0.30;99.90
7496;DHT22;3789;47.064;15.482;2022-12-07T07:10:51;0.40;99.90
7496;DHT22;3789;47.064;15.482;2022-12-07T07:13:20;0.40;99.90
7496;DHT22;3789;47.064;15.482;2022-12-07T07:15:57;0.50;99.90
7496;DHT22;3789;47.064;15.482;2022-12-07T07:18:26;0.40;99.90
7496;DHT22;3789;47.064;15.482;2022-12-07T07:20:57;0.30;99.90
7496;DHT22;3789;47.064;15.482;2022-12-07T07:23:27;0.30;99.90
7496;DHT22;3789;47.064;15.482;2022-12-07T07:25:55;0.40;99.90
7496;DHT22;3789;47.064;15.482;2022-12-07T07:28:25;0.50;99.90
7496;DHT22;3789;47.064;15.482;2022-12-07T07:30:53;0.60;99.90
7496;DHT22;3789;47.064;15.482;2022-12-07T07:33:20;0.80;99.90
7496;DHT22;3789;47.064;15.482;2022-12-07T07:35:52;1.00;99.90
7496;DHT22;3789;47.064;15.482;2022-12-07T07:38:20;1.10;99.90
7496;DHT22;3789;47.064;15.482;2022-12-07T07:40:53;1.20;99.90
7496;DHT22;3789;47.064;15.482;2022-12-07T07:43:23;1.30;99.90
7496;DHT22;3789;47.064;15.482;2022-12-07T07:46:01;1.40;99.90
7496;DHT22;3789;47.064;15.482;2022-12-07T07:48:30;1.40;99.90
7496;DHT22;3789;47.064;15.482;2022-12-07T07:50:57;1.50;99.90
7496;DHT22;3789;47.064;15.482;2022-12-07T07:53:26;1.50;99.90
7496;DHT22;3789;47.064;15.482;2022-12-07T07:55:57;1.60;99.90
7496;DHT22;3789;47.064;15.482;2022-12-07T07:58:29;1.60;99.90
7496;DHT22;3789;47.064;15.482;2022-12-07T08:01:04;1.60;99.90
7496;DHT22;3789;47.064;15.482;2022-12-07T08:03:33;1.60;99.90
7496;DHT22;3789;47.064;15.482;2022-12-07T08:06:05;1.60;99.90
7496;DHT22;3789;47.064;15.482;2022-12-07T08:08:36;1.70;99.90
7496;DHT22;3789;47.064;15.482;2022-12-07T08:11:08;1.80;99.90
7496;DHT22;3789;47.064;15.482;2022-12-07T08:13:48;1.80;99.90
7496;DHT22;3789;47.064;15.482;2022-12-07T08:16:17;1.80;99.90
7496;DHT22;3789;47.064;15.482;2022-12-07T08:18:46;1.80;99.90
7496;DHT22;3789;47.064;15.482;2022-12-07T08:21:15;1.80;99.90
7496;DHT22;3789;47.064;15.482;2022-12-07T08:24:00;1.80;99.90
7496;DHT22;3789;47.064;15.482;2022-12-07T08:26:28;1.00;99.90
7496;DHT22;3789;47.064;15.482;2022-12-07T08:28:56;-0.50;99.90
7496;DHT22;3789;47.064;15.482;2022-12-07T08:31:24;-1.80;99.90
7496;DHT22;3789;47.064;15.482;2022-12-07T08:33:54;-2.50;99.90
7496;DHT22;3789;47.064;15.482;2022-12-07T08:36:30;-3.20;99.90
7496;DHT22;3789;47.064;15.482;2022-12-07T08:39:10;-3.60;99.90
7496;DHT22;3789;47.064;15.482;2022-12-07T08:42:02;-3.90;99.90
7496;DHT22;3789;47.064;15.482;2022-12-07T08:44:30;-4.00;99.90
7496;DHT22;3789;47.064;15.482;2022-12-07T08:47:18;-4.20;99.90
7496;DHT22;3789;47.064;15.482;2022-12-07T08:50:11;-4.30;99.90
7496;DHT22;3789;47.064;15.482;2022-12-07T08:52:42;-4.40;99.90
7496;DHT22;3789;47.064;15.482;2022-12-07T08:55:11;-4.50;99.90
7496;DHT22;3789;47.064;15.482;2022-12-07T08:57:40;-4.60;99.90
7496;DHT22;3789;47.064;15.482;2022-12-07T09:00:14;-4.70;99.90
7496;DHT22;3789;47.064;15.482;2022-12-07T09:02:48;-4.70;99.90
7496;DHT22;3789;47.064;15.482;2022-12-07T09:05:18;-4.60;99.90
7496;DHT22;3789;47.064;15.482;2022-12-07T09:08:04;-4.30;99.90
7496;DHT22;3789;47.064;15.482;2022-12-07T09:10:41;-3.50;99.90
7496;DHT22;3789;47.064;15.482;2022-12-07T09:13:18;-2.40;99.90
7496;DHT22;3789;47.064;15.482;2022-12-07T09:15:47;-1.50;99.90
7496;DHT22;3789;47.064;15.482;2022-12-07T09:18:17;-0.80;99.90
7496;DHT22;3789;47.064;15.482;2022-12-07T09:20:45;-0.20;99.90
7496;DHT22;3789;47.064;15.482;2022-12-07T09:23:14;0.20;99.90
7496;DHT22;3789;47.064;15.482;2022-12-07T09:25:44;0.50;99.90
7496;DHT22;3789;47.064;15.482;2022-12-07T09:28:15;0.80;99.90
7496;DHT22;3789;47.064;15.482;2022-12-07T09:30:48;1.00;99.90
7496;DHT22;3789;47.064;15.482;2022-12-07T09:33:36;1.30;99.90
7496;DHT22;3789;47.064;15.482;2022-12-07T09:36:04;1.50;99.90
7496;DHT22;3789;47.064;15.482;2022-12-07T09:38:41;1.70;99.90
7496;DHT22;3789;47.064;15.482;2022-12-07T09:41:11;1.80;99.90
7496;DHT22;3789;47.064;15.482;2022-12-07T09:43:40;2.00;99.90
7496;DHT22;3789;47.064;15.482;2022-12-07T09:46:14;2.20;99.90
7496;DHT22;3789;47.064;15.482;2022-12-07T09:48:43;2.40;99.90
7496;DHT22;3789;47.064;15.482;2022-12-07T09:51:24;2.60;99.90
7496;DHT22;3789;47.064;15.482;2022-12-07T09:53:56;2.70;99.90
7496;DHT22;3789;47.064;15.482;2022-12-07T09:56:25;2.90;99.90
7496;DHT22;3789;47.064;15.482;2022-12-07T09:59:02;3.10;99.90
7496;DHT22;3789;47.064;15.482;2022-12-07T10:01:33;3.20;99.90
7496;DHT22;3789;47.064;15.482;2022-12-07T10:04:22;3.20;99.90
7496;DHT22;3789;47.064;15.482;2022-12-07T10:06:53;3.20;99.90
7496;DHT22;3789;47.064;15.482;2022-12-07T10:09:21;3.20;99.90
7496;DHT22;3789;47.064;15.482;2022-12-07T10:12:07;3.20;99.90
7496;DHT22;3789;47.064;15.482;2022-12-07T10:14:40;3.20;99.90
7496;DHT22;3789;47.064;15.482;2022-12-07T10:17:36;3.30;99.90
7496;DHT22;3789;47.064;15.482;2022-12-07T10:20:26;3.40;99.90
7496;DHT22;3789;47.064;15.482;2022-12-07T10:23:11;3.60;99.90
7496;DHT22;3789;47.064;15.482;2022-12-07T10:25:47;3.60;99.90
7496;DHT22;3789;47.064;15.482;2022-12-07T10:28:18;3.70;99.90
7496;DHT22;3789;47.064;15.482;2022-12-07T10:31:01;3.80;99.90
7496;DHT22;3789;47.064;15.482;2022-12-07T10:34:03;3.90;99.90
7496;DHT22;3789;47.064;15.482;2022-12-07T10:39:19;4.20;99.90
7496;DHT22;3789;47.064;15.482;2022-12-07T10:42:04;4.20;99.90
7496;DHT22;3789;47.064;15.482;2022-12-07T10:44:44;4.40;99.90
7496;DHT22;3789;47.064;15.482;2022-12-07T10:47:48;4.50;99.90
7496;DHT22;3789;47.064;15.482;2022-12-07T10:53:40;4.70;99.90
7496;DHT22;3789;47.064;15.482;2022-12-07T11:05:27;4.90;99.90
7496;DHT22;3789;47.064;15.482;2022-12-07T11:20:04;5.00;99.90
7496;DHT22;3789;47.064;15.482;2022-12-07T11:23:01;5.10;99.90
7496;DHT22;3789;47.064;15.482;2022-12-07T11:25:54;5.20;99.90
7496;DHT22;3789;47.064;15.482;2022-12-07T11:29:16;5.20;99.90
7496;DHT22;3789;47.064;15.482;2022-12-07T11:32:09;5.20;99.90
7496;DHT22;3789;47.064;15.482;2022-12-07T11:37:47;5.10;99.90
7496;DHT22;3789;47.064;15.482;2022-12-07T11:40:36;5.10;99.90
7496;DHT22;3789;47.064;15.482;2022-12-07T11:43:35;5.20;99.90
7496;DHT22;3789;47.064;15.482;2022-12-07T11:46:11;5.20;99.90
7496;DHT22;3789;47.064;15.482;2022-12-07T11:48:57;5.40;99.90
7496;DHT22;3789;47.064;15.482;2022-12-07T11:51:29;5.20;99.90
7496;DHT22;3789;47.064;15.482;2022-12-07T11:54:35;5.00;99.90
7496;DHT22;3789;47.064;15.482;2022-12-07T11:57:10;4.80;99.90
7496;DHT22;3789;47.064;15.482;2022-12-07T11:59:59;4.80;99.90
7496;DHT22;3789;47.064;15.482;2022-12-07T12:05:25;4.40;99.90
7496;DHT22;3789;47.064;15.482;2022-12-07T12:08:29;4.30;99.90
7496;DHT22;3789;47.064;15.482;2022-12-07T12:18:05;4.60;99.90
7496;DHT22;3789;47.064;15.482;2022-12-07T12:26:18;4.90;99.90
7496;DHT22;3789;47.064;15.482;2022-12-07T12:29:07;4.90;99.90
7496;DHT22;3789;47.064;15.482;2022-12-07T12:32:04;4.90;99.90
7496;DHT22;3789;47.064;15.482;2022-12-07T12:35:00;4.80;99.90
7496;DHT22;3789;47.064;15.482;2022-12-07T12:37:41;4.90;99.90
7496;DHT22;3789;47.064;15.482;2022-12-07T12:49:37;4.30;99.90
7496;DHT22;3789;47.064;15.482;2022-12-07T12:52:49;4.40;99.90
7496;DHT22;3789;47.064;15.482;2022-12-07T12:55:48;4.50;99.90
7496;DHT22;3789;47.064;15.482;2022-12-07T12:58:28;4.60;99.90
7496;DHT22;3789;47.064;15.482;2022-12-07T13:01:44;4.60;99.90
7496;DHT22;3789;47.064;15.482;2022-12-07T13:04:30;4.50;99.90
7496;DHT22;3789;47.064;15.482;2022-12-07T13:10:38;4.60;99.90
7496;DHT22;3789;47.064;15.482;2022-12-07T13:13:28;4.60;99.90
7496;DHT22;3789;47.064;15.482;2022-12-07T13:18:38;4.50;99.90
7496;DHT22;3789;47.064;15.482;2022-12-07T13:23:58;4.50;99.90
7496;DHT22;3789;47.064;15.482;2022-12-07T13:26:45;4.00;99.90
7496;DHT22;3789;47.064;15.482;2022-12-07T13:29:19;1.90;99.90
7496;DHT22;3789;47.064;15.482;2022-12-07T13:31:56;0.20;99.90
7496;DHT22;3789;47.064;15.482;2022-12-07T13:34:33;-0.90;99.90
7496;DHT22;3789;47.064;15.482;2022-12-07T13:37:15;-1.60;99.90
7496;DHT22;3789;47.064;15.482;2022-12-07T13:39:50;-2.10;99.90
7496;DHT22;3789;47.064;15.482;2022-12-07T13:42:31;-2.40;99.90
7496;DHT22;3789;47.064;15.482;2022-12-07T13:45:17;-2.60;99.90
7496;DHT22;3789;47.064;15.482;2022-12-07T13:51:21;-3.10;99.90
7496;DHT22;3789;47.064;15.482;2022-12-07T13:53:59;-3.20;99.90
7496;DHT22;3789;47.064;15.482;2022-12-07T13:56:40;-3.30;99.90
7496;DHT22;3789;47.064;15.482;2022-12-07T13:59:22;-3.40;99.90
7496;DHT22;3789;47.064;15.482;2022-12-07T14:01:52;-3.50;99.90
7496;DHT22;3789;47.064;15.482;2022-12-07T14:04:35;-3.60;99.90
7496;DHT22;3789;47.064;15.482;2022-12-07T14:07:28;-3.70;99.90
7496;DHT22;3789;47.064;15.482;2022-12-07T14:10:04;-3.80;99.90
7496;DHT22;3789;47.064;15.482;2022-12-07T14:12:36;-3.80;99.90
7496;DHT22;3789;47.064;15.482;2022-12-07T14:15:21;-3.90;99.90
7496;DHT22;3789;47.064;15.482;2022-12-07T14:17:53;-3.70;99.90
7496;DHT22;3789;47.064;15.482;2022-12-07T14:20:43;-3.50;99.90
7496;DHT22;3789;47.064;15.482;2022-12-07T14:23:27;-3.20;99.90
7496;DHT22;3789;47.064;15.482;2022-12-07T14:26:12;-2.90;99.90
7496;DHT22;3789;47.064;15.482;2022-12-07T14:28:49;-2.70;99.90
7496;DHT22;3789;47.064;15.482;2022-12-07T14:31:21;-2.30;99.90
7496;DHT22;3789;47.064;15.482;2022-12-07T14:34:00;-0.70;99.90
7496;DHT22;3789;47.064;15.482;2022-12-07T14:36:31;-1.10;99.90
7496;DHT22;3789;47.064;15.482;2022-12-07T14:39:00;-1.50;99.90
7496;DHT22;3789;47.064;15.482;2022-12-07T14:41:39;-1.80;99.90
7496;DHT22;3789;47.064;15.482;2022-12-07T14:44:24;-1.60;99.90
7496;DHT22;3789;47.064;15.482;2022-12-07T14:47:03;-1.10;99.90
7496;DHT22;3789;47.064;15.482;2022-12-07T14:49:53;-0.50;99.90
7496;DHT22;3789;47.064;15.482;2022-12-07T14:52:52;0.10;99.90
7496;DHT22;3789;47.064;15.482;2022-12-07T14:55:41;0.50;99.90
7496;DHT22;3789;47.064;15.482;2022-12-07T14:58:49;0.80;99.90
7496;DHT22;3789;47.064;15.482;2022-12-07T15:01:26;1.00;99.90
7496;DHT22;3789;47.064;15.482;2022-12-07T15:03:57;1.10;99.90
7496;DHT22;3789;47.064;15.482;2022-12-07T15:06:25;1.20;99.90
7496;DHT22;3789;47.064;15.482;2022-12-07T15:08:53;1.40;99.90
7496;DHT22;3789;47.064;15.482;2022-12-07T15:11:22;1.50;99.90
7496;DHT22;3789;47.064;15.482;2022-12-07T15:13:53;1.60;99.90
7496;DHT22;3789;47.064;15.482;2022-12-07T15:16:43;1.70;99.90
7496;DHT22;3789;47.064;15.482;2022-12-07T15:19:37;1.80;99.90
7496;DHT22;3789;47.064;15.482;2022-12-07T15:22:07;1.90;99.90
7496;DHT22;3789;47.064;15.482;2022-12-07T15:24:36;1.90;99.90
7496;DHT22;3789;47.064;15.482;2022-12-07T15:27:04;2.00;99.90
7496;DHT22;3789;47.064;15.482;2022-12-07T15:29:34;2.10;99.90
7496;DHT22;3789;47.064;15.482;2022-12-07T15:32:01;2.10;99.90
7496;DHT22;3789;47.064;15.482;2022-12-07T15:34:29;2.20;99.90
7496;DHT22;3789;47.064;15.482;2022-12-07T15:37:08;2.20;99.90
7496;DHT22;3789;47.064;15.482;2022-12-07T15:39:37;2.30;99.90
7496;DHT22;3789;47.064;15.482;2022-12-07T15:42:07;2.30;99.90
7496;DHT22;3789;47.064;15.482;2022-12-07T15:44:36;2.40;99.90
7496;DHT22;3789;47.064;15.482;2022-12-07T15:47:25;2.40;99.90
7496;DHT22;3789;47.064;15.482;2022-12-07T15:49:57;2.40;99.90
7496;DHT22;3789;47.064;15.482;2022-12-07T15:52:27;2.50;99.90
7496;DHT22;3789;47.064;15.482;2022-12-07T15:54:57;2.50;99.90
7496;DHT22;3789;47.064;15.482;2022-12-07T15:57:32;2.50;99.90
7496;DHT22;3789;47.064;15.482;2022-12-07T16:00:25;2.60;99.90
7496;DHT22;3789;47.064;15.482;2022-12-07T16:02:53;2.70;99.90
7496;DHT22;3789;47.064;15.482;2022-12-07T16:05:21;2.70;99.90
7496;DHT22;3789;47.064;15.482;2022-12-07T16:07:52;2.80;99.90
7496;DHT22;3789;47.064;15.482;2022-12-07T16:10:28;2.80;99.90
7496;DHT22;3789;47.064;15.482;2022-12-07T16:12:57;2.80;99.90
7496;DHT22;3789;47.064;15.482;2022-12-07T16:15:27;2.80;99.90
7496;DHT22;3789;47.064;15.482;2022-12-07T16:17:58;2.80;99.90
7496;DHT22;3789;47.064;15.482;2022-12-07T16:20:28;2.90;99.90
7496;DHT22;3789;47.064;15.482;2022-12-07T16:22:59;2.90;99.90
7496;DHT22;3789;47.064;15.482;2022-12-07T16:25:27;2.90;99.90
7496;DHT22;3789;47.064;15.482;2022-12-07T16:27:59;3.00;99.90
7496;DHT22;3789;47.064;15.482;2022-12-07T16:30:35;3.00;99.90
7496;DHT22;3789;47.064;15.482;2022-12-07T16:33:03;3.00;99.90
7496;DHT22;3789;47.064;15.482;2022-12-07T16:35:39;3.00;99.90
7496;DHT22;3789;47.064;15.482;2022-12-07T16:38:09;3.10;99.90
7496;DHT22;3789;47.064;15.482;2022-12-07T16:40:40;3.10;99.90
7496;DHT22;3789;47.064;15.482;2022-12-07T16:43:08;3.10;99.90
7496;DHT22;3789;47.064;15.482;2022-12-07T16:45:42;3.10;99.90
7496;DHT22;3789;47.064;15.482;2022-12-07T16:48:11;3.10;99.90
7496;DHT22;3789;47.064;15.482;2022-12-07T16:50:50;3.10;99.90
7496;DHT22;3789;47.064;15.482;2022-12-07T16:53:24;3.20;99.90
7496;DHT22;3789;47.064;15.482;2022-12-07T16:55:54;3.20;99.90
7496;DHT22;3789;47.064;15.482;2022-12-07T16:58:24;3.20;99.90
7496;DHT22;3789;47.064;15.482;2022-12-07T17:00:53;3.20;99.90
7496;DHT22;3789;47.064;15.482;2022-12-07T17:03:20;3.20;99.90
7496;DHT22;3789;47.064;15.482;2022-12-07T17:05:51;3.20;99.90
7496;DHT22;3789;47.064;15.482;2022-12-07T17:08:19;3.10;99.90
7496;DHT22;3789;47.064;15.482;2022-12-07T17:10:48;3.10;99.90
7496;DHT22;3789;47.064;15.482;2022-12-07T17:13:17;3.20;99.90
7496;DHT22;3789;47.064;15.482;2022-12-07T17:16:06;3.20;99.90
7496;DHT22;3789;47.064;15.482;2022-12-07T17:18:39;3.20;99.90
7496;DHT22;3789;47.064;15.482;2022-12-07T17:21:09;3.20;99.90
7496;DHT22;3789;47.064;15.482;2022-12-07T17:23:40;3.20;99.90
7496;DHT22;3789;47.064;15.482;2022-12-07T17:26:14;3.30;99.90
7496;DHT22;3789;47.064;15.482;2022-12-07T17:28:43;3.20;99.90
7496;DHT22;3789;47.064;15.482;2022-12-07T17:31:16;3.30;99.90
7496;DHT22;3789;47.064;15.482;2022-12-07T17:33:45;3.30;99.90
7496;DHT22;3789;47.064;15.482;2022-12-07T17:36:17;3.30;99.90
7496;DHT22;3789;47.064;15.482;2022-12-07T17:38:46;3.30;99.90
7496;DHT22;3789;47.064;15.482;2022-12-07T17:41:29;3.30;99.90
7496;DHT22;3789;47.064;15.482;2022-12-07T17:44:41;3.30;99.90
7496;DHT22;3789;47.064;15.482;2022-12-07T17:47:24;3.30;99.90
7496;DHT22;3789;47.064;15.482;2022-12-07T17:49:53;3.30;99.90
7496;DHT22;3789;47.064;15.482;2022-12-07T17:52:31;3.30;99.90
7496;DHT22;3789;47.064;15.482;2022-12-07T17:55:20;3.30;99.90
7496;DHT22;3789;47.064;15.482;2022-12-07T17:57:51;3.30;99.90
7496;DHT22;3789;47.064;15.482;2022-12-07T18:00:22;3.30;99.90
7496;DHT22;3789;47.064;15.482;2022-12-07T18:02:50;3.30;99.90
7496;DHT22;3789;47.064;15.482;2022-12-07T18:05:21;3.30;99.90
7496;DHT22;3789;47.064;15.482;2022-12-07T18:07:49;3.30;99.90
7496;DHT22;3789;47.064;15.482;2022-12-07T18:10:25;3.30;99.90
7496;DHT22;3789;47.064;15.482;2022-12-07T18:12:54;3.30;99.90
7496;DHT22;3789;47.064;15.482;2022-12-07T18:15:47;3.20;99.90
7496;DHT22;3789;47.064;15.482;2022-12-07T18:18:26;3.20;99.90
7496;DHT22;3789;47.064;15.482;2022-12-07T18:20:55;3.20;99.90
7496;DHT22;3789;47.064;15.482;2022-12-07T18:23:22;3.20;99.90
7496;DHT22;3789;47.064;15.482;2022-12-07T18:25:52;3.20;99.90
7496;DHT22;3789;47.064;15.482;2022-12-07T18:28:20;3.30;99.90
7496;DHT22;3789;47.064;15.482;2022-12-07T18:30:49;3.30;99.90
7496;DHT22;3789;47.064;15.482;2022-12-07T18:33:37;3.20;99.90
7496;DHT22;3789;47.064;15.482;2022-12-07T18:36:19;3.30;99.90
7496;DHT22;3789;47.064;15.482;2022-12-07T18:38:48;3.30;99.90